Time;durP1;ratioP1;P1;durP2;ratioP2;P2;SDS_P1;SDS_P2;PMS_P1;PMS_P2;Temp;Humidity;BMP_temperature;BMP_pressure;BME280_temperature;BME280_humidity;BME280_pressure;Samples;Min_cycle;Max_cycle;Signal;HPM_P1;HPM_P2
2022/06/01 00:00:49;;;;;;;37.35;9.27;;;22.70;82.60;;;;;;5130953;28;20046;-71
2022/06/01 00:03:53;;;;;;;30.58;8.38;;;22.70;83.10;;;;;;5131990;28;20046;-70
2022/06/01 00:06:57;;;;;;;26.50;8.23;;;22.70;82.80;;;;;;5131909;28;20501;-70
2022/06/01 00:10:02;;;;;;;26.17;7.25;;;22.70;82.80;;;;;;5134718;27;20390;-70
2022/06/01 00:13:06;;;;;;;27.20;7.47;;;22.70;83.10;;;;;;5135100;27;20050;-70
2022/06/01 00:16:11;;;;;;;27.67;7.63;;;22.50;83.20;;;;;;5135717;27;20058;-70
2022/06/01 00:19:16;;;;;;;30.63;8.18;;;22.50;83.20;;;;;;5135642;27;20054;-70
2022/06/01 00:22:20;;;;;;;27.02;8.00;;;22.40;83.60;;;;;;5134628;27;20493;-70
2022/06/01 00:25:25;;;;;;;39.78;7.75;;;22.20;83.60;;;;;;5135772;27;20054;-70
2022/06/01 00:28:29;;;;;;;32.38;7.50;;;22.10;84.00;;;;;;5135546;27;20046;-70
2022/06/01 00:31:33;;;;;;;33.92;7.65;;;22.10;83.10;;;;;;5135101;27;20054;-70
2022/06/01 00:34:39;;;;;;;32.40;7.28;;;22.10;83.90;;;;;;5135293;27;20046;-70
2022/06/01 00:37:43;;;;;;;18.65;7.25;;;22.00;83.90;;;;;;5135472;27;20046;-70
2022/06/01 00:40:48;;;;;;;28.73;7.90;;;22.00;83.20;;;;;;5134832;27;20039;-70
2022/06/01 00:43:55;;;;;;;24.75;7.10;;;22.00;83.70;;;;;;5123139;27;20034;-70
2022/06/01 00:46:59;;;;;;;21.77;6.53;;;21.90;83.90;;;;;;5135179;27;20050;-70
2022/06/01 00:50:06;;;;;;;33.13;8.20;;;21.90;83.00;;;;;;5134812;27;20058;-70
2022/06/01 00:53:20;;;;;;;24.20;7.25;;;22.00;82.50;;;;;;5135218;27;20038;-70
2022/06/01 00:56:30;;;;;;;29.83;7.55;;;21.90;82.30;;;;;;5122353;27;20051;-70
2022/06/01 00:59:38;;;;;;;30.65;7.07;;;21.90;83.00;;;;;;5122120;27;20049;-70
2022/06/01 01:02:44;;;;;;;28.75;6.95;;;21.80;80.90;;;;;;5135446;27;20046;-71
2022/06/01 01:05:58;;;;;;;29.35;7.22;;;21.80;80.10;;;;;;5135052;27;20053;-70
2022/06/01 01:09:04;;;;;;;24.08;6.38;;;21.70;79.70;;;;;;5134871;27;20050;-70
2022/06/01 01:12:11;;;;;;;28.98;6.47;;;21.50;79.90;;;;;;5134418;27;20042;-70
2022/06/01 01:15:16;;;;;;;24.35;5.88;;;21.30;80.10;;;;;;5134571;27;20649;-70
2022/06/01 01:18:33;;;;;;;22.80;5.30;;;21.00;80.70;;;;;;5134688;27;20046;-70
2022/06/01 01:21:57;;;;;;;25.42;7.97;;;20.90;80.20;;;;;;5133621;27;20058;-70
2022/06/01 01:25:16;;;;;;;21.85;5.75;;;20.70;80.90;;;;;;5134680;27;20050;-70
2022/06/01 01:28:19;;;;;;;31.55;6.45;;;20.90;81.10;;;;;;5133404;27;20046;-70
2022/06/01 01:31:25;;;;;;;27.85;6.35;;;21.10;80.60;;;;;;5134296;27;20069;-70
2022/06/01 01:34:29;;;;;;;26.48;7.05;;;21.20;80.10;;;;;;5134406;27;20046;-70
2022/06/01 01:37:33;;;;;;;26.40;6.57;;;21.30;80.00;;;;;;5133250;27;20054;-70
2022/06/01 01:40:37;;;;;;;27.77;6.15;;;21.30;79.80;;;;;;5121322;27;20034;-70
2022/06/01 01:44:00;;;;;;;26.48;6.78;;;21.40;80.50;;;;;;5134340;27;20038;-70
2022/06/01 01:47:04;;;;;;;22.02;6.70;;;21.10;80.70;;;;;;5134102;27;20050;-70
2022/06/01 01:50:10;;;;;;;26.42;7.03;;;20.80;82.00;;;;;;5134038;27;20062;-70
2022/06/01 01:53:14;;;;;;;24.63;8.00;;;20.60;83.10;;;;;;5133992;27;20039;-70
2022/06/01 01:56:39;;;;;;;23.83;7.53;;;20.70;83.70;;;;;;5133643;27;20070;-70
2022/06/01 02:00:00;;;;;;;31.73;6.95;;;20.90;83.60;;;;;;5133654;27;20034;-70
2022/06/01 02:03:08;;;;;;;33.88;8.57;;;21.00;83.20;;;;;;5133936;27;20050;-70
2022/06/01 02:06:37;;;;;;;28.77;7.80;;;21.00;83.40;;;;;;5133719;27;20066;-70
2022/06/01 02:13:08;;;;;;;24.20;6.97;;;20.70;84.20;;;;;;5133297;27;20104;-70
2022/06/01 02:16:12;;;;;;;21.50;7.18;;;20.60;84.50;;;;;;5133353;27;20410;-70
2022/06/01 02:19:24;;;;;;;23.88;7.05;;;20.50;84.80;;;;;;5133317;27;20046;-70
2022/06/01 02:22:28;;;;;;;;;;;20.50;85.00;;;;;;5133730;27;20046;-70
2022/06/01 02:25:32;;;;;;;26.17;7.57;;;20.40;85.30;;;;;;5133271;27;19930;-70
2022/06/01 02:28:40;;;;;;;22.50;7.05;;;20.40;85.30;;;;;;5132206;27;20042;-70
2022/06/01 02:31:46;;;;;;;29.38;7.43;;;20.50;85.00;;;;;;5132322;27;20042;-70
2022/06/01 02:34:52;;;;;;;24.60;8.05;;;20.60;84.90;;;;;;5133091;27;20391;-70
2022/06/01 02:37:58;;;;;;;28.88;7.75;;;20.60;84.60;;;;;;5132119;27;20109;-70
2022/06/01 02:41:02;;;;;;;30.58;7.53;;;20.60;84.50;;;;;;5132644;27;20042;-70
2022/06/01 02:44:06;;;;;;;31.02;8.93;;;20.50;84.70;;;;;;5132280;27;20049;-70
2022/06/01 02:47:11;;;;;;;24.15;7.10;;;20.40;85.00;;;;;;5133014;27;20038;-70
2022/06/01 02:50:19;;;;;;;25.52;7.80;;;20.30;85.10;;;;;;5132549;27;20378;-70
2022/06/01 02:53:23;;;;;;;31.25;7.53;;;20.40;85.00;;;;;;5132960;27;20050;-70
2022/06/01 02:56:28;;;;;;;29.35;7.95;;;20.50;85.00;;;;;;5132350;27;20521;-70
2022/06/01 02:59:32;;;;;;;22.25;7.18;;;20.40;85.40;;;;;;5132533;27;20513;-70
2022/06/01 03:02:40;;;;;;;27.55;7.75;;;20.30;85.80;;;;;;5132558;27;20065;-70
2022/06/01 03:05:44;;;;;;;22.63;7.10;;;20.30;86.50;;;;;;5131575;27;20046;-70
2022/06/01 03:08:48;;;;;;;28.25;8.13;;;20.30;86.40;;;;;;5132471;27;20398;-70
2022/06/01 03:11:52;;;;;;;24.13;7.60;;;20.40;86.40;;;;;;5131755;27;20038;-70
2022/06/01 03:14:56;;;;;;;22.58;6.38;;;20.50;85.50;;;;;;5132477;27;20046;-70
2022/06/01 03:18:00;;;;;;;26.35;6.40;;;20.50;84.80;;;;;;5132342;27;20058;-70
2022/06/01 03:21:04;;;;;;;25.83;8.18;;;20.50;84.70;;;;;;5131691;27;20049;-70
2022/06/01 03:24:11;;;;;;;27.75;6.60;;;20.30;84.60;;;;;;5132428;27;20053;-70
2022/06/01 03:27:15;;;;;;;28.00;7.35;;;20.00;86.00;;;;;;5131234;27;20042;-70
2022/06/01 03:30:21;;;;;;;24.20;7.05;;;20.00;85.90;;;;;;5119312;27;20406;-70
2022/06/01 03:33:25;;;;;;;26.92;7.28;;;19.90;85.90;;;;;;5132296;27;20046;-70
2022/06/01 03:36:29;;;;;;;28.98;7.22;;;19.80;86.70;;;;;;5131729;27;20070;-70
2022/06/01 03:39:33;;;;;;;24.92;7.07;;;19.80;87.40;;;;;;5131293;27;20046;-70
2022/06/01 03:42:37;;;;;;;21.05;5.95;;;19.80;87.00;;;;;;5131673;27;20430;-70
2022/06/01 03:45:56;;;;;;;27.67;7.20;;;19.70;87.80;;;;;;5131870;28;20043;-70
2022/06/01 03:49:00;;;;;;;35.88;8.55;;;19.90;87.70;;;;;;5131658;28;20054;-70
2022/06/01 03:52:05;;;;;;;25.92;7.45;;;20.10;87.50;;;;;;5131834;28;20050;-70
2022/06/01 03:55:09;;;;;;;24.35;8.02;;;20.20;87.10;;;;;;5131121;28;20042;-70
2022/06/01 03:58:20;;;;;;;20.33;8.10;;;20.30;86.90;;;;;;5130991;28;20054;-70
2022/06/01 04:01:24;;;;;;;28.65;7.25;;;20.20;86.80;;;;;;5131682;28;20386;-70
2022/06/01 04:04:29;;;;;;;26.02;7.47;;;20.10;87.60;;;;;;5131786;28;20112;-70
2022/06/01 04:07:32;;;;;;;31.60;9.13;;;20.10;87.70;;;;;;5131865;28;20395;-70
2022/06/01 04:10:39;;;;;;;20.88;7.60;;;20.10;87.50;;;;;;5131536;28;20038;-70
2022/06/01 04:13:43;;;;;;;30.27;6.93;;;20.10;87.80;;;;;;5131706;28;20046;-70
2022/06/01 04:16:48;;;;;;;30.23;6.25;;;20.10;87.10;;;;;;5131517;28;20050;-70
2022/06/01 04:19:52;;;;;;;26.42;6.32;;;20.30;86.30;;;;;;5131475;28;20234;-70
2022/06/01 04:23:00;;;;;;;20.35;6.43;;;20.10;85.40;;;;;;5131308;28;20046;-70
2022/06/01 04:26:04;;;;;;;28.45;7.00;;;20.10;86.30;;;;;;5131785;28;20050;-70
2022/06/01 04:29:08;;;;;;;30.02;10.07;;;20.10;86.80;;;;;;5131644;28;20046;-70
2022/06/01 04:32:15;;;;;;;38.78;8.15;;;20.20;86.80;;;;;;5131208;28;20501;-70
2022/06/01 04:35:21;;;;;;;51.13;8.75;;;20.50;86.40;;;;;;5131558;28;20045;-70
2022/06/01 04:38:26;;;;;;;33.33;8.23;;;20.60;86.50;;;;;;5131229;28;20066;-70
2022/06/01 04:41:31;;;;;;;34.70;8.57;;;20.80;86.30;;;;;;5131143;28;20527;-70
2022/06/01 04:44:35;;;;;;;41.00;8.10;;;21.20;85.60;;;;;;5131385;28;20035;-70
2022/06/01 04:47:39;;;;;;;71.25;11.18;;;21.60;84.40;;;;;;5130358;28;20039;-70
2022/06/01 04:50:43;;;;;;;69.18;12.57;;;22.30;83.40;;;;;;5131229;28;20395;-70
2022/06/01 04:53:47;;;;;;;63.65;10.95;;;22.90;81.70;;;;;;5131475;28;20043;-70
2022/06/01 04:56:52;;;;;;;50.92;9.55;;;23.30;80.60;;;;;;5134465;27;20046;-70
2022/06/01 04:59:56;;;;;;;30.42;8.43;;;23.60;80.30;;;;;;5134731;27;20038;-70
2022/06/01 05:03:01;;;;;;;34.33;8.50;;;23.60;79.80;;;;;;5134820;27;20050;-70
2022/06/01 05:06:05;;;;;;;24.50;7.90;;;23.30;80.40;;;;;;5134757;27;20054;-70
2022/06/01 05:09:09;;;;;;;28.83;7.63;;;23.30;80.70;;;;;;5134457;27;20389;-70
2022/06/01 05:12:13;;;;;;;27.92;7.63;;;23.30;80.10;;;;;;5134642;27;20050;-70
2022/06/01 05:15:17;;;;;;;32.97;7.85;;;23.30;80.00;;;;;;5134763;27;20042;-70
2022/06/01 05:18:22;;;;;;;29.23;7.18;;;23.60;78.40;;;;;;5134615;27;20058;-70
2022/06/01 05:21:25;;;;;;;28.67;8.38;;;23.60;78.90;;;;;;5134204;27;20034;-70
2022/06/01 05:24:29;;;;;;;28.02;7.97;;;23.90;77.60;;;;;;5134309;27;20046;-70
2022/06/01 05:27:34;;;;;;;27.42;6.78;;;24.20;77.60;;;;;;5134172;27;20046;-70
2022/06/01 05:30:38;;;;;;;29.90;6.85;;;24.20;77.40;;;;;;5134159;27;20046;-70
2022/06/01 05:33:43;;;;;;;27.05;6.82;;;24.40;77.10;;;;;;5133899;27;20046;-70
2022/06/01 05:36:47;;;;;;;32.00;7.00;;;24.50;77.40;;;;;;5134064;27;20046;-70
2022/06/01 05:39:52;;;;;;;33.40;7.65;;;24.70;77.00;;;;;;5133992;27;20396;-70
2022/06/01 05:42:57;;;;;;;37.13;7.30;;;24.90;77.10;;;;;;5134024;27;20058;-70
2022/06/01 05:46:03;;;;;;;27.15;7.70;;;25.30;75.80;;;;;;5133678;27;20038;-71
2022/06/01 05:49:06;;;;;;;26.98;7.82;;;25.50;75.30;;;;;;5133256;27;20072;-70
2022/06/01 05:52:10;;;;;;;38.85;7.57;;;25.80;75.40;;;;;;5133098;27;20046;-71
2022/06/01 05:55:14;;;;;;;37.30;7.22;;;26.10;75.30;;;;;;5133024;27;20034;-82
2022/06/01 05:58:21;;;;;;;30.67;6.53;;;26.50;74.20;;;;;;5134016;27;20065;-84
2022/06/01 06:01:25;;;;;;;63.15;9.20;;;26.80;73.60;;;;;;5133922;27;20394;-85
2022/06/01 06:04:29;;;;;;;61.22;8.90;;;26.90;73.50;;;;;;5132375;27;20050;-70
2022/06/01 06:07:34;;;;;;;46.85;7.70;;;27.00;73.70;;;;;;5133361;27;20039;-72
2022/06/01 06:10:37;;;;;;;42.92;7.38;;;27.10;73.80;;;;;;5133239;27;20038;-76
2022/06/01 06:13:41;;;;;;;36.67;5.57;;;27.40;74.10;;;;;;5133613;27;20101;-79
2022/06/01 06:16:47;;;;;;;27.40;7.60;;;27.70;73.60;;;;;;5133220;27;20058;-74
2022/06/01 06:19:51;;;;;;;33.55;7.38;;;27.80;72.80;;;;;;5133194;27;20050;-78
2022/06/01 06:22:55;;;;;;;41.67;7.82;;;27.90;73.00;;;;;;5132897;27;20045;-78
2022/06/01 06:25:59;;;;;;;33.30;7.15;;;27.90;73.00;;;;;;5133284;27;20042;-74
2022/06/01 06:29:07;;;;;;;62.33;10.30;;;28.00;73.00;;;;;;5133173;27;20194;-77
2022/06/01 06:32:11;;;;;;;38.85;7.28;;;28.00;73.00;;;;;;5132381;27;20517;-73
2022/06/01 06:35:15;;;;;;;31.08;7.13;;;28.10;72.80;;;;;;5132784;27;20042;-70
2022/06/01 06:38:19;;;;;;;32.13;6.47;;;28.40;71.80;;;;;;5132093;27;20050;-72
2022/06/01 06:41:24;;;;;;;36.90;7.03;;;28.70;70.60;;;;;;5132559;27;20058;-72
2022/06/01 06:44:28;;;;;;;25.25;6.00;;;28.70;70.60;;;;;;5133087;27;20046;-77
2022/06/01 06:47:32;;;;;;;40.75;6.95;;;28.70;71.30;;;;;;5133052;27;20050;-77
2022/06/01 06:50:36;;;;;;;21.45;6.80;;;28.80;71.00;;;;;;5133039;27;20057;-78
2022/06/01 06:53:41;;;;;;;27.90;6.85;;;29.10;70.70;;;;;;5133361;27;20038;-84
2022/06/01 06:56:45;;;;;;;27.70;7.15;;;29.30;70.00;;;;;;5132465;27;20054;-75
2022/06/01 06:59:49;;;;;;;26.65;6.72;;;29.30;69.80;;;;;;5132580;27;20042;-78
2022/06/01 07:02:53;;;;;;;39.80;7.65;;;29.60;69.40;;;;;;5132277;27;20054;-76
2022/06/01 07:06:09;;;;;;;21.73;5.53;;;29.90;68.00;;;;;;5132836;27;20489;-76
2022/06/01 07:09:13;;;;;;;47.75;8.52;;;30.00;67.00;;;;;;5132505;27;20402;-75
2022/06/01 07:12:17;;;;;;;40.83;7.10;;;29.90;66.90;;;;;;5132249;27;20386;-75
2022/06/01 07:15:21;;;;;;;31.95;6.70;;;30.00;65.90;;;;;;5131808;27;20535;-74
2022/06/01 07:18:24;;;;;;;27.95;5.25;;;30.00;66.10;;;;;;5130692;27;20505;-76
2022/06/01 07:21:29;;;;;;;30.88;6.03;;;30.20;65.10;;;;;;5131836;27;20513;-68
2022/06/01 07:24:34;;;;;;;31.02;5.72;;;30.30;63.80;;;;;;5132476;27;20394;-79
2022/06/01 07:27:38;;;;;;;29.92;6.75;;;30.40;64.60;;;;;;5131958;27;20042;-85
2022/06/01 07:30:42;;;;;;;30.15;5.80;;;30.60;62.90;;;;;;5132413;27;20050;-78
2022/06/01 07:33:46;;;;;;;29.33;6.18;;;30.60;61.50;;;;;;5132234;27;20042;-82
2022/06/01 07:36:50;;;;;;;34.35;7.07;;;30.60;60.70;;;;;;5131929;27;20050;-76
2022/06/01 07:43:21;;;;;;;25.98;5.25;;;30.50;60.20;;;;;;5132139;28;20050;-69
2022/06/01 07:46:24;;;;;;;25.60;5.43;;;30.60;60.60;;;;;;5131983;28;20050;-72
2022/06/01 07:49:28;;;;;;;20.65;5.70;;;30.80;59.60;;;;;;5132133;28;20038;-72
2022/06/01 07:52:33;;;;;;;32.25;5.90;;;30.90;59.40;;;;;;5132133;28;20054;-78
2022/06/01 07:55:38;;;;;;;20.73;4.65;;;31.00;58.10;;;;;;5131770;28;20038;-78
2022/06/01 07:58:43;;;;;;;42.47;4.93;;;31.10;57.90;;;;;;5131936;28;20058;-89
2022/06/01 08:01:47;;;;;;;29.33;5.70;;;31.40;57.50;;;;;;5132301;28;20034;-79
2022/06/01 08:04:51;;;;;;;68.47;10.63;;;31.40;55.70;;;;;;5132167;28;20046;-75
2022/06/01 08:07:55;;;;;;;36.03;5.82;;;31.40;56.90;;;;;;5132711;28;20053;-88
2022/06/01 08:10:59;;;;;;;23.55;5.18;;;31.60;56.30;;;;;;5133066;28;20043;-88
2022/06/01 08:14:03;;;;;;;25.27;4.82;;;31.60;54.50;;;;;;5132003;28;20505;-78
2022/06/01 08:17:07;;;;;;;23.13;4.28;;;31.50;53.50;;;;;;5131424;28;20046;-73
2022/06/01 08:20:15;;;;;;;27.42;4.57;;;31.50;54.20;;;;;;5131266;28;20047;-78
2022/06/01 08:23:25;;;;;;;28.77;5.45;;;31.30;54.20;;;;;;5131416;28;20062;-75
2022/06/01 08:26:29;;;;;;;21.02;4.45;;;31.40;55.80;;;;;;5131409;28;20046;-73
2022/06/01 08:29:34;;;;;;;18.10;5.05;;;31.60;55.50;;;;;;5131018;27;20034;-73
2022/06/01 08:32:39;;;;;;;34.90;6.35;;;31.80;55.30;;;;;;5135485;27;20419;-81
2022/06/01 08:35:46;;;;;;;22.42;4.88;;;31.90;55.90;;;;;;5134036;27;20042;-68
2022/06/01 08:38:50;;;;;;;31.15;5.70;;;31.90;55.80;;;;;;5134873;27;20038;-68
2022/06/01 08:41:55;;;;;;;30.60;5.40;;;32.00;55.90;;;;;;5134914;27;20501;-70
2022/06/01 08:45:04;;;;;;;23.13;6.20;;;32.10;55.00;;;;;;5134024;27;20046;-68
2022/06/01 08:48:14;;;;;;;16.90;4.47;;;32.10;55.10;;;;;;5137643;27;20042;-70
2022/06/01 08:51:23;;;;;;;23.43;4.50;;;32.10;55.10;;;;;;5133891;27;20050;-70
2022/06/01 08:54:28;;;;;;;23.35;5.88;;;32.10;53.80;;;;;;5133816;27;20050;-72
2022/06/01 08:58:06;;;;;;;26.30;5.53;;;32.20;53.50;;;;;;5134643;27;20046;-76
2022/06/01 09:01:16;;;;;;;31.13;5.45;;;32.10;53.90;;;;;;5134163;27;20042;-74
2022/06/01 09:04:29;;;;;;;20.15;4.75;;;32.20;53.70;;;;;;5131726;27;20050;-73
2022/06/01 09:07:42;;;;;;;20.65;5.13;;;32.30;54.20;;;;;;5132437;27;20062;-71
2022/06/01 09:11:07;;;;;;;21.60;4.43;;;32.40;53.60;;;;;;5132649;27;20058;-71
2022/06/01 09:14:23;;;;;;;28.63;4.88;;;32.40;53.50;;;;;;5133278;27;20382;-70
2022/06/01 09:17:28;;;;;;;33.92;6.00;;;32.40;52.90;;;;;;5133825;27;20406;-68
2022/06/01 09:23:54;;;;;;;32.28;6.88;;;32.40;56.70;;;;;;5134432;27;20042;-70
2022/06/01 09:27:05;;;;;;;34.75;6.53;;;32.40;60.00;;;;;;5134203;27;20042;-73
2022/06/01 09:30:21;;;;;;;39.15;8.57;;;32.40;60.60;;;;;;5134267;27;20414;-77
2022/06/01 09:33:31;;;;;;;35.38;6.30;;;32.40;61.20;;;;;;5134113;27;20051;-69
2022/06/01 09:36:47;;;;;;;32.67;6.10;;;32.40;61.40;;;;;;5134193;27;20050;-77
2022/06/01 09:39:54;;;;;;;21.23;6.40;;;32.50;60.90;;;;;;5134025;27;20125;-71
2022/06/01 09:43:02;;;;;;;23.77;5.72;;;32.50;60.60;;;;;;5133865;27;20054;-71
2022/06/01 09:46:06;;;;;;;83.50;9.13;;;32.50;60.40;;;;;;5133870;27;20054;-73
2022/06/01 09:49:19;;;;;;;38.80;5.75;;;32.50;60.00;;;;;;5133339;27;20050;-71
2022/06/01 09:52:31;;;;;;;53.63;7.22;;;32.50;58.20;;;;;;5133902;27;20046;-71
2022/06/01 09:55:54;;;;;;;20.85;5.38;;;32.40;59.00;;;;;;5133675;27;20062;-72
2022/06/01 10:06:07;;;;;;;28.17;5.68;;;32.50;57.10;;;;;;5132746;27;20482;-72
2022/06/01 10:09:12;;;;;;;;;;;32.50;57.30;;;;;;5133998;27;20050;-72
2022/06/01 10:12:44;;;;;;;17.75;4.30;;;32.60;56.80;;;;;;5132907;27;19915;-75
2022/06/01 10:15:51;;;;;;;16.92;4.57;;;32.50;56.20;;;;;;5133154;27;20042;-74
2022/06/01 10:18:59;;;;;;;16.50;4.35;;;32.50;55.60;;;;;;5133109;27;20042;-74
2022/06/01 10:22:32;;;;;;;18.17;4.30;;;32.50;56.00;;;;;;5133145;27;20175;-75
2022/06/01 10:26:03;;;;;;;21.10;4.63;;;32.40;55.80;;;;;;5133234;27;20051;-72
2022/06/01 10:29:14;;;;;;;18.25;4.55;;;32.30;56.00;;;;;;5132743;27;20043;-72
2022/06/01 10:32:41;;;;;;;11.93;4.78;;;32.30;56.20;;;;;;5133367;27;20046;-79
2022/06/01 10:35:51;;;;;;;19.88;4.97;;;32.30;55.70;;;;;;5133039;27;20046;-74
2022/06/01 10:39:38;;;;;;;17.55;4.93;;;32.20;56.00;;;;;;5132650;27;20058;-73
2022/06/01 10:43:16;;;;;;;14.05;4.50;;;32.20;56.30;;;;;;5135995;27;20049;-73
2022/06/01 10:46:23;;;;;;;26.58;6.38;;;32.20;56.70;;;;;;5132889;27;20393;-73
2022/06/01 10:49:57;;;;;;;23.13;5.78;;;32.20;58.30;;;;;;5132529;27;20367;-73
2022/06/01 10:53:13;;;;;;;25.65;4.88;;;32.20;58.60;;;;;;5131699;27;20406;-73
2022/06/01 10:56:20;;;;;;;23.05;5.68;;;32.20;57.40;;;;;;5132414;27;20054;-73
2022/06/01 10:59:25;;;;;;;15.73;4.55;;;32.20;57.70;;;;;;5132333;27;20058;-73
2022/06/01 11:02:44;;;;;;;21.92;5.30;;;32.20;57.90;;;;;;5132447;27;20050;-73
2022/06/01 11:05:57;;;;;;;28.08;6.70;;;32.20;58.60;;;;;;5132533;27;20100;-73
2022/06/01 11:09:27;;;;;;;22.13;5.35;;;32.10;59.60;;;;;;5132422;27;20038;-73
2022/06/01 11:12:50;;;;;;;27.33;5.93;;;32.10;58.90;;;;;;5132290;27;20038;-73
2022/06/01 11:16:12;;;;;;;24.33;5.75;;;32.20;59.60;;;;;;5132109;27;20050;-74
2022/06/01 11:20:04;;;;;;;17.58;5.70;;;32.10;58.90;;;;;;5132060;27;20050;-73
2022/06/01 11:23:09;;;;;;;33.42;6.57;;;32.10;61.30;;;;;;5105617;27;20046;-73
2022/06/01 11:26:41;;;;;;;26.15;6.75;;;32.10;62.70;;;;;;5132020;27;20038;-74
2022/06/01 11:30:16;;;;;;;22.13;5.65;;;32.10;62.50;;;;;;5132122;27;20038;-73
2022/06/01 11:33:32;;;;;;;29.23;6.30;;;32.10;62.80;;;;;;5132099;27;20046;-74
2022/06/01 11:36:57;;;;;;;24.95;5.60;;;32.10;63.10;;;;;;5131909;27;20046;-72
2022/06/01 11:40:34;;;;;;;23.02;5.40;;;32.00;63.20;;;;;;5132141;27;20053;-73
2022/06/01 11:43:49;;;;;;;17.95;4.82;;;32.00;62.90;;;;;;5133554;27;20398;-72
2022/06/01 11:47:07;;;;;;;22.80;5.90;;;32.10;63.10;;;;;;5131803;28;20066;-73
2022/06/01 11:50:49;;;;;;;30.73;5.60;;;32.10;63.20;;;;;;5132154;28;20046;-73
2022/06/01 11:54:05;;;;;;;22.98;5.72;;;32.10;63.50;;;;;;5131993;28;20420;-72
2022/06/01 11:57:37;;;;;;;21.40;5.35;;;32.10;63.70;;;;;;5131803;28;20070;-73
2022/06/01 12:00:43;;;;;;;23.83;6.25;;;32.10;64.10;;;;;;5131662;28;20046;-73
2022/06/01 12:04:20;;;;;;;23.80;5.78;;;32.10;64.30;;;;;;5132164;27;20042;-73
2022/06/01 12:07:31;;;;;;;20.20;5.28;;;32.10;63.80;;;;;;5135988;27;20033;-73
2022/06/01 12:10:56;;;;;;;22.98;5.75;;;32.00;63.70;;;;;;5135738;27;20046;-73
2022/06/01 12:14:00;;;;;;;18.77;5.05;;;32.10;64.80;;;;;;5135726;27;20085;-73
2022/06/01 12:17:22;;;;;;;16.38;5.13;;;32.00;64.70;;;;;;5135627;27;20548;-73
2022/06/01 12:20:32;;;;;;;21.13;5.07;;;32.00;64.90;;;;;;5135947;27;20501;-73
2022/06/01 12:30:54;;;;;;;23.60;6.05;;;31.90;63.80;;;;;;5135537;27;20633;-73
2022/06/01 12:34:13;;;;;;;16.17;4.63;;;31.80;63.70;;;;;;5135481;27;20204;-74
2022/06/01 12:37:24;;;;;;;20.40;4.87;;;31.80;63.70;;;;;;5135466;27;20046;-73
2022/06/01 12:40:29;;;;;;;15.13;4.68;;;31.70;64.00;;;;;;5135377;27;20280;-73
2022/06/01 12:43:35;;;;;;;18.40;3.92;;;31.60;63.60;;;;;;5135195;27;20062;-73
2022/06/01 12:46:43;;;;;;;27.02;5.57;;;31.60;63.90;;;;;;5135237;27;20066;-74
2022/06/01 12:49:48;;;;;;;17.73;4.63;;;31.50;64.40;;;;;;5134517;27;20034;-73
2022/06/01 12:53:10;;;;;;;34.83;5.82;;;31.50;64.20;;;;;;5135078;27;20053;-73
2022/06/01 12:56:19;;;;;;;22.52;4.90;;;31.40;64.20;;;;;;5135106;27;20042;-73
2022/06/01 12:59:24;;;;;;;35.75;5.97;;;31.40;63.00;;;;;;5135019;27;20552;-73
2022/06/01 13:02:33;;;;;;;24.08;5.07;;;31.30;63.40;;;;;;5134791;27;20034;-73
2022/06/01 13:05:41;;;;;;;27.73;4.78;;;31.30;63.10;;;;;;5134756;27;20042;-74
2022/06/01 13:09:06;;;;;;;23.90;4.72;;;31.30;63.30;;;;;;5134685;27;20394;-73
2022/06/01 13:12:17;;;;;;;18.10;4.55;;;31.30;63.00;;;;;;5134962;27;20061;-73
2022/06/01 13:15:28;;;;;;;21.75;4.72;;;31.20;62.80;;;;;;5134122;27;20390;-73
2022/06/01 13:18:36;;;;;;;19.05;4.38;;;31.20;63.00;;;;;;5134341;27;20513;-74
2022/06/01 13:21:41;;;;;;;14.32;4.45;;;31.20;63.30;;;;;;5134784;27;20054;-74
2022/06/01 13:25:08;;;;;;;21.08;4.78;;;31.10;62.80;;;;;;5134669;27;20050;-78
2022/06/01 13:28:13;;;;;;;19.02;4.15;;;31.10;62.50;;;;;;5133729;27;20038;-83
2022/06/01 13:31:18;;;;;;;20.23;5.63;;;31.10;62.30;;;;;;5133783;27;20046;-73
2022/06/01 13:34:23;;;;;;;21.50;4.65;;;31.10;62.10;;;;;;5134027;27;20041;-72
2022/06/01 13:37:29;;;;;;;17.83;4.55;;;31.10;61.90;;;;;;5133995;27;20050;-71
2022/06/01 13:40:41;;;;;;;19.27;4.63;;;31.10;61.90;;;;;;5133991;27;20038;-72
2022/06/01 13:43:47;;;;;;;21.90;4.82;;;31.10;61.80;;;;;;5133805;27;20046;-73
2022/06/01 13:46:51;;;;;;;21.88;4.57;;;31.00;61.10;;;;;;5132978;27;20038;-74
2022/06/01 13:50:18;;;;;;;25.08;4.18;;;31.00;61.50;;;;;;5120950;27;20046;-74
2022/06/01 13:53:32;;;;;;;31.02;4.78;;;31.00;61.10;;;;;;5134158;27;20378;-74
2022/06/01 13:56:44;;;;;;;16.48;4.35;;;31.00;61.50;;;;;;5134290;27;20042;-74
2022/06/01 13:59:57;;;;;;;20.52;4.82;;;30.90;60.80;;;;;;5134077;27;20054;-78
2022/06/01 14:03:32;;;;;;;21.20;4.32;;;30.90;60.50;;;;;;5134099;27;20106;-74
2022/06/01 14:06:44;;;;;;;29.00;5.05;;;30.90;60.90;;;;;;5133615;27;20046;-75
2022/06/01 14:10:00;;;;;;;33.45;5.75;;;30.80;62.00;;;;;;5132786;27;20042;-75
2022/06/01 14:13:04;;;;;;;26.98;4.53;;;30.80;62.80;;;;;;5132516;27;20038;-74
2022/06/01 14:16:14;;;;;;;26.90;4.80;;;30.80;62.20;;;;;;5133664;27;20050;-74
2022/06/01 14:19:18;;;;;;;27.00;5.72;;;30.70;61.80;;;;;;5133107;27;20048;-75
2022/06/01 14:22:22;;;;;;;36.25;4.88;;;30.70;61.00;;;;;;5133655;27;20421;-72
2022/06/01 14:28:49;;;;;;;40.85;5.63;;;30.70;62.30;;;;;;5132264;27;20128;-71
2022/06/01 14:31:57;;;;;;;28.20;4.88;;;30.70;62.30;;;;;;5133540;27;20066;-73
2022/06/01 14:35:02;;;;;;;18.02;4.28;;;30.60;62.10;;;;;;5132846;27;20050;-75
2022/06/01 14:38:06;;;;;;;12.95;3.20;;;30.60;61.80;;;;;;5133124;27;20054;-72
2022/06/01 14:41:30;;;;;;;16.80;3.80;;;30.70;61.20;;;;;;5132675;27;20046;-72
2022/06/01 14:44:34;;;;;;;16.42;4.50;;;30.70;60.70;;;;;;5133182;27;20042;-73
2022/06/01 14:47:39;;;;;;;28.92;4.97;;;30.70;61.00;;;;;;5133108;27;20050;-75
2022/06/01 14:50:43;;;;;;;12.73;3.40;;;30.70;60.60;;;;;;5132885;27;20050;-74
2022/06/01 14:53:47;;;;;;;16.30;4.50;;;30.70;60.80;;;;;;5132493;27;20042;-75
2022/06/01 14:56:51;;;;;;;33.28;5.90;;;30.70;60.50;;;;;;5132366;27;20046;-73
2022/06/01 14:59:55;;;;;;;36.22;5.30;;;30.60;60.50;;;;;;5132550;27;20047;-72
2022/06/01 15:03:00;;;;;;;15.98;4.15;;;30.60;60.40;;;;;;5132812;27;20041;-72
2022/06/01 15:06:04;;;;;;;25.08;4.53;;;30.60;60.10;;;;;;5131921;27;20406;-69
2022/06/01 15:09:09;;;;;;;16.05;4.03;;;30.60;59.40;;;;;;5132230;27;20053;-70
2022/06/01 15:12:13;;;;;;;18.38;3.67;;;30.50;59.20;;;;;;5132029;27;20057;-69
2022/06/01 15:15:17;;;;;;;17.02;4.47;;;30.50;59.70;;;;;;5132015;27;20643;-69
2022/06/01 15:18:21;;;;;;;22.52;4.03;;;30.40;60.10;;;;;;5130816;27;20054;-73
2022/06/01 15:21:27;;;;;;;13.27;3.83;;;30.40;60.50;;;;;;5132161;27;20053;-72
2022/06/01 15:24:31;;;;;;;18.70;4.25;;;30.40;60.70;;;;;;5131974;27;20387;-68
2022/06/01 15:27:38;;;;;;;25.23;5.13;;;30.40;60.70;;;;;;5131404;27;20058;-72
2022/06/01 15:40:50;;;;;;;18.70;3.88;;;30.20;61.30;;;;;;5131451;27;20053;-74
2022/06/01 15:43:56;;;;;;;17.45;4.45;;;30.20;62.50;;;;;;5131223;27;20373;-72
2022/06/01 15:47:05;;;;;;;27.60;4.80;;;30.10;61.90;;;;;;5131844;28;20050;-70
2022/06/01 15:50:11;;;;;;;18.83;4.53;;;30.10;61.90;;;;;;5131929;28;20050;-77
2022/06/01 15:53:15;;;;;;;14.02;3.70;;;30.00;61.40;;;;;;5130400;28;20042;-73
2022/06/01 15:56:19;;;;;;;18.30;4.35;;;29.90;62.00;;;;;;5131361;28;20110;-69
2022/06/01 15:59:23;;;;;;;20.85;5.13;;;29.90;62.80;;;;;;5131500;28;20054;-70
2022/06/01 16:02:28;;;;;;;22.75;4.97;;;29.90;63.40;;;;;;5131973;28;20042;-72
2022/06/01 16:05:33;;;;;;;24.17;5.07;;;29.90;63.40;;;;;;5131208;28;20386;-68
2022/06/01 16:08:38;;;;;;;22.15;5.15;;;29.90;63.00;;;;;;5131002;28;20038;-71
2022/06/01 16:11:43;;;;;;;16.80;4.30;;;29.90;63.20;;;;;;5131327;28;20058;-71
2022/06/01 16:14:47;;;;;;;17.17;4.50;;;29.80;63.30;;;;;;5131198;28;20058;-70
2022/06/01 16:17:52;;;;;;;21.75;4.57;;;29.80;63.60;;;;;;5131303;28;20057;-71
2022/06/01 16:20:59;;;;;;;24.85;4.75;;;29.80;64.60;;;;;;5131702;28;20112;-71
2022/06/01 16:24:04;;;;;;;20.35;4.53;;;29.80;65.70;;;;;;5131448;28;20067;-71
2022/06/01 16:27:09;;;;;;;21.05;4.68;;;29.80;66.40;;;;;;5131291;28;20410;-71
2022/06/01 16:30:14;;;;;;;21.45;5.28;;;29.70;67.20;;;;;;5131127;28;20042;-71
2022/06/01 16:33:31;;;;;;;17.85;5.07;;;29.70;67.60;;;;;;5131037;28;20046;-71
2022/06/01 16:36:35;;;;;;;33.22;9.77;;;29.70;68.30;;;;;;5131645;28;20058;-71
2022/06/01 16:39:43;;;;;;;15.73;4.95;;;29.70;68.60;;;;;;5131068;28;20513;-71
2022/06/01 16:42:51;;;;;;;20.70;5.28;;;29.70;68.80;;;;;;5131315;28;20522;-71
2022/06/01 16:45:58;;;;;;;21.90;5.35;;;29.70;68.70;;;;;;5130687;28;20042;-71
2022/06/01 16:49:03;;;;;;;33.70;5.93;;;29.70;68.40;;;;;;5130970;28;20509;-71